sensor_id;sensor_type;location;lat;lon;timestamp;temperature;humidity
68943;DHT22;60852;52.190;4.422;2023-04-07T00:02:24;9.97;83.60
68943;DHT22;60852;52.190;4.422;2023-04-07T00:04:51;9.99;83.42
68943;DHT22;60852;52.190;4.422;2023-04-07T00:07:16;9.96;83.52
68943;DHT22;60852;52.190;4.422;2023-04-07T00:09:42;9.96;83.57
68943;DHT22;60852;52.190;4.422;2023-04-07T00:12:07;9.93;83.42
68943;DHT22;60852;52.190;4.422;2023-04-07T00:14:33;9.90;83.52
68943;DHT22;60852;52.190;4.422;2023-04-07T00:16:58;9.90;83.42
68943;DHT22;60852;52.190;4.422;2023-04-07T00:19:23;9.83;83.53
68943;DHT22;60852;52.190;4.422;2023-04-07T00:21:49;9.85;83.54
68943;DHT22;60852;52.190;4.422;2023-04-07T00:24:14;9.83;83.43
68943;DHT22;60852;52.190;4.422;2023-04-07T00:26:40;9.86;83.46
68943;DHT22;60852;52.190;4.422;2023-04-07T00:29:05;9.83;83.34
68943;DHT22;60852;52.190;4.422;2023-04-07T00:31:30;9.78;83.57
68943;DHT22;60852;52.190;4.422;2023-04-07T00:33:56;9.81;83.36
68943;DHT22;60852;52.190;4.422;2023-04-07T00:36:22;9.78;83.74
68943;DHT22;60852;52.190;4.422;2023-04-07T00:38:47;9.75;83.76
68943;DHT22;60852;52.190;4.422;2023-04-07T00:41:13;9.75;83.85
68943;DHT22;60852;52.190;4.422;2023-04-07T00:43:38;9.72;83.93
68943;DHT22;60852;52.190;4.422;2023-04-07T00:46:04;9.73;83.97
68943;DHT22;60852;52.190;4.422;2023-04-07T00:48:30;9.73;83.81
68943;DHT22;60852;52.190;4.422;2023-04-07T00:50:55;9.73;83.99
68943;DHT22;60852;52.190;4.422;2023-04-07T00:53:21;9.72;83.98
68943;DHT22;60852;52.190;4.422;2023-04-07T00:55:47;9.69;84.23
68943;DHT22;60852;52.190;4.422;2023-04-07T00:58:12;9.73;84.16
68943;DHT22;60852;52.190;4.422;2023-04-07T01:00:54;9.72;84.37
68943;DHT22;60852;52.190;4.422;2023-04-07T01:03:44;9.73;84.64
68943;DHT22;60852;52.190;4.422;2023-04-07T01:06:14;9.78;84.45
68943;DHT22;60852;52.190;4.422;2023-04-07T01:08:59;9.85;84.51
68943;DHT22;60852;52.190;4.422;2023-04-07T01:11:49;9.89;84.40
68943;DHT22;60852;52.190;4.422;2023-04-07T01:14:18;9.90;84.31
68943;DHT22;60852;52.190;4.422;2023-04-07T01:16:49;9.94;84.18
68943;DHT22;60852;52.190;4.422;2023-04-07T01:21:57;10.02;83.92
68943;DHT22;60852;52.190;4.422;2023-04-07T01:30:10;10.04;83.61
68943;DHT22;60852;52.190;4.422;2023-04-07T01:32:39;10.07;83.56
68943;DHT22;60852;52.190;4.422;2023-04-07T01:35:09;10.07;83.30
68943;DHT22;60852;52.190;4.422;2023-04-07T01:37:36;10.07;83.35
68943;DHT22;60852;52.190;4.422;2023-04-07T01:40:04;10.09;83.16
68943;DHT22;60852;52.190;4.422;2023-04-07T01:42:31;10.10;82.96
68943;DHT22;60852;52.190;4.422;2023-04-07T01:44:59;10.12;82.96
68943;DHT22;60852;52.190;4.422;2023-04-07T01:47:27;10.16;82.84
68943;DHT22;60852;52.190;4.422;2023-04-07T01:49:57;10.16;82.78
68943;DHT22;60852;52.190;4.422;2023-04-07T01:52:25;10.17;82.82
68943;DHT22;60852;52.190;4.422;2023-04-07T01:54:52;10.13;82.54
68943;DHT22;60852;52.190;4.422;2023-04-07T01:57:17;10.06;82.46
68943;DHT22;60852;52.190;4.422;2023-04-07T01:59:42;10.00;82.78
68943;DHT22;60852;52.190;4.422;2023-04-07T02:02:08;10.00;82.81
68943;DHT22;60852;52.190;4.422;2023-04-07T02:04:51;9.97;82.75
68943;DHT22;60852;52.190;4.422;2023-04-07T02:07:29;9.99;82.83
68943;DHT22;60852;52.190;4.422;2023-04-07T02:09:59;9.97;82.81
68943;DHT22;60852;52.190;4.422;2023-04-07T02:12:28;9.94;83.02
68943;DHT22;60852;52.190;4.422;2023-04-07T02:14:55;9.93;83.08
68943;DHT22;60852;52.190;4.422;2023-04-07T02:17:24;9.99;83.23
68943;DHT22;60852;52.190;4.422;2023-04-07T02:19:52;10.00;83.29
68943;DHT22;60852;52.190;4.422;2023-04-07T02:22:18;9.97;83.40
68943;DHT22;60852;52.190;4.422;2023-04-07T02:24:44;10.02;83.44
68943;DHT22;60852;52.190;4.422;2023-04-07T02:27:09;9.96;83.39
68943;DHT22;60852;52.190;4.422;2023-04-07T02:29:35;9.99;83.54
68943;DHT22;60852;52.190;4.422;2023-04-07T02:32:01;10.00;83.56
68943;DHT22;60852;52.190;4.422;2023-04-07T02:34:26;10.02;83.43
68943;DHT22;60852;52.190;4.422;2023-04-07T02:36:51;10.00;83.63
68943;DHT22;60852;52.190;4.422;2023-04-07T02:39:17;10.00;83.68
68943;DHT22;60852;52.190;4.422;2023-04-07T02:41:42;9.94;83.76
68943;DHT22;60852;52.190;4.422;2023-04-07T02:44:08;9.96;83.94
68943;DHT22;60852;52.190;4.422;2023-04-07T02:46:33;9.97;83.77
68943;DHT22;60852;52.190;4.422;2023-04-07T02:48:59;9.99;83.88
68943;DHT22;60852;52.190;4.422;2023-04-07T02:51:24;10.02;83.82
68943;DHT22;60852;52.190;4.422;2023-04-07T02:53:51;9.97;83.69
68943;DHT22;60852;52.190;4.422;2023-04-07T02:56:16;9.94;84.14
68943;DHT22;60852;52.190;4.422;2023-04-07T02:58:42;9.94;84.26
68943;DHT22;60852;52.190;4.422;2023-04-07T03:01:07;9.93;84.28
68943;DHT22;60852;52.190;4.422;2023-04-07T03:03:33;9.89;84.52
68943;DHT22;60852;52.190;4.422;2023-04-07T03:05:58;9.86;84.77
68943;DHT22;60852;52.190;4.422;2023-04-07T03:08:23;9.82;84.73
68943;DHT22;60852;52.190;4.422;2023-04-07T03:10:49;9.86;84.75
68943;DHT22;60852;52.190;4.422;2023-04-07T03:13:14;9.87;84.65
68943;DHT22;60852;52.190;4.422;2023-04-07T03:15:43;9.83;84.37
68943;DHT22;60852;52.190;4.422;2023-04-07T03:18:09;9.89;84.29
68943;DHT22;60852;52.190;4.422;2023-04-07T03:20:36;9.82;84.19
68943;DHT22;60852;52.190;4.422;2023-04-07T03:23:02;9.86;84.25
68943;DHT22;60852;52.190;4.422;2023-04-07T03:25:28;9.87;84.00
68943;DHT22;60852;52.190;4.422;2023-04-07T03:27:53;9.85;83.78
68943;DHT22;60852;52.190;4.422;2023-04-07T03:30:19;9.76;83.74
68943;DHT22;60852;52.190;4.422;2023-04-07T03:32:44;9.68;83.72
68943;DHT22;60852;52.190;4.422;2023-04-07T03:35:10;9.73;83.80
68943;DHT22;60852;52.190;4.422;2023-04-07T03:37:35;9.78;83.79
68943;DHT22;60852;52.190;4.422;2023-04-07T03:40:01;9.81;83.75
68943;DHT22;60852;52.190;4.422;2023-04-07T03:42:26;9.76;83.48
68943;DHT22;60852;52.190;4.422;2023-04-07T03:44:52;9.73;83.02
68943;DHT22;60852;52.190;4.422;2023-04-07T03:47:17;9.72;82.91
68943;DHT22;60852;52.190;4.422;2023-04-07T03:49:43;9.66;82.81
68943;DHT22;60852;52.190;4.422;2023-04-07T03:52:08;9.69;83.15
68943;DHT22;60852;52.190;4.422;2023-04-07T03:54:34;9.76;83.15
68943;DHT22;60852;52.190;4.422;2023-04-07T03:57:00;9.83;83.17
68943;DHT22;60852;52.190;4.422;2023-04-07T03:59:26;9.89;83.07
68943;DHT22;60852;52.190;4.422;2023-04-07T04:01:52;9.87;83.11
68943;DHT22;60852;52.190;4.422;2023-04-07T04:04:17;9.82;83.40
68943;DHT22;60852;52.190;4.422;2023-04-07T04:06:43;9.85;83.18
68943;DHT22;60852;52.190;4.422;2023-04-07T04:09:08;9.93;83.13
68943;DHT22;60852;52.190;4.422;2023-04-07T04:11:34;10.00;82.90
68943;DHT22;60852;52.190;4.422;2023-04-07T04:14:00;10.00;82.90
68943;DHT22;60852;52.190;4.422;2023-04-07T04:16:26;10.00;82.70
68943;DHT22;60852;52.190;4.422;2023-04-07T04:18:51;9.96;82.65
68943;DHT22;60852;52.190;4.422;2023-04-07T04:21:17;9.94;82.83
68943;DHT22;60852;52.190;4.422;2023-04-07T04:23:42;9.96;82.77
68943;DHT22;60852;52.190;4.422;2023-04-07T04:26:07;10.00;82.61
68943;DHT22;60852;52.190;4.422;2023-04-07T04:28:33;9.97;82.55
68943;DHT22;60852;52.190;4.422;2023-04-07T04:30:58;9.92;82.67
68943;DHT22;60852;52.190;4.422;2023-04-07T04:33:24;9.87;82.77
68943;DHT22;60852;52.190;4.422;2023-04-07T04:35:49;9.87;82.59
68943;DHT22;60852;52.190;4.422;2023-04-07T04:38:15;9.78;82.18
68943;DHT22;60852;52.190;4.422;2023-04-07T04:40:41;9.81;81.91
68943;DHT22;60852;52.190;4.422;2023-04-07T04:43:06;9.75;81.49
68943;DHT22;60852;52.190;4.422;2023-04-07T04:45:33;9.73;81.14
68943;DHT22;60852;52.190;4.422;2023-04-07T04:48:00;9.73;80.76
68943;DHT22;60852;52.190;4.422;2023-04-07T04:50:25;9.81;80.63
68943;DHT22;60852;52.190;4.422;2023-04-07T04:52:51;9.79;79.91
68943;DHT22;60852;52.190;4.422;2023-04-07T04:55:17;9.75;79.58
68943;DHT22;60852;52.190;4.422;2023-04-07T04:57:42;9.71;79.60
68943;DHT22;60852;52.190;4.422;2023-04-07T05:00:08;9.73;79.57
68943;DHT22;60852;52.190;4.422;2023-04-07T05:02:35;9.72;79.78
68943;DHT22;60852;52.190;4.422;2023-04-07T05:05:00;9.76;80.33
68943;DHT22;60852;52.190;4.422;2023-04-07T05:07:26;9.82;80.41
68943;DHT22;60852;52.190;4.422;2023-04-07T05:09:51;9.86;79.81
68943;DHT22;60852;52.190;4.422;2023-04-07T05:12:17;9.86;80.07
68943;DHT22;60852;52.190;4.422;2023-04-07T05:14:42;9.87;79.82
68943;DHT22;60852;52.190;4.422;2023-04-07T05:17:08;9.83;80.14
68943;DHT22;60852;52.190;4.422;2023-04-07T05:19:33;9.90;79.91
68943;DHT22;60852;52.190;4.422;2023-04-07T05:21:59;9.94;79.55
68943;DHT22;60852;52.190;4.422;2023-04-07T05:24:28;9.97;79.35
68943;DHT22;60852;52.190;4.422;2023-04-07T05:26:53;10.00;79.31
68943;DHT22;60852;52.190;4.422;2023-04-07T05:29:19;9.97;78.79
68943;DHT22;60852;52.190;4.422;2023-04-07T05:31:44;9.94;78.84
68943;DHT22;60852;52.190;4.422;2023-04-07T05:34:10;9.93;79.09
68943;DHT22;60852;52.190;4.422;2023-04-07T05:36:35;9.90;79.57
68943;DHT22;60852;52.190;4.422;2023-04-07T05:39:01;9.92;79.69
68943;DHT22;60852;52.190;4.422;2023-04-07T05:41:26;9.96;79.42
68943;DHT22;60852;52.190;4.422;2023-04-07T05:43:52;9.99;79.46
68943;DHT22;60852;52.190;4.422;2023-04-07T05:46:17;10.04;79.36
68943;DHT22;60852;52.190;4.422;2023-04-07T05:48:42;10.07;79.43
68943;DHT22;60852;52.190;4.422;2023-04-07T05:51:08;10.10;79.59
68943;DHT22;60852;52.190;4.422;2023-04-07T05:53:33;10.04;80.10
68943;DHT22;60852;52.190;4.422;2023-04-07T05:55:59;10.09;80.53
68943;DHT22;60852;52.190;4.422;2023-04-07T05:58:24;10.02;80.49
68943;DHT22;60852;52.190;4.422;2023-04-07T06:00:50;10.09;80.68
68943;DHT22;60852;52.190;4.422;2023-04-07T06:03:15;10.10;80.66
68943;DHT22;60852;52.190;4.422;2023-04-07T06:05:41;10.14;80.66
68943;DHT22;60852;52.190;4.422;2023-04-07T06:08:08;10.12;80.85
68943;DHT22;60852;52.190;4.422;2023-04-07T06:10:34;10.16;80.74
68943;DHT22;60852;52.190;4.422;2023-04-07T06:13:00;10.06;80.97
68943;DHT22;60852;52.190;4.422;2023-04-07T06:15:25;10.00;80.92
68943;DHT22;60852;52.190;4.422;2023-04-07T06:17:51;10.06;80.74
68943;DHT22;60852;52.190;4.422;2023-04-07T06:20:16;9.92;80.27
68943;DHT22;60852;52.190;4.422;2023-04-07T06:22:41;9.93;80.08
68943;DHT22;60852;52.190;4.422;2023-04-07T06:25:08;9.89;79.58
68943;DHT22;60852;52.190;4.422;2023-04-07T06:27:34;9.87;78.79
68943;DHT22;60852;52.190;4.422;2023-04-07T06:30:00;9.90;78.34
68943;DHT22;60852;52.190;4.422;2023-04-07T06:32:25;9.87;77.93
68943;DHT22;60852;52.190;4.422;2023-04-07T06:34:51;9.83;77.67
68943;DHT22;60852;52.190;4.422;2023-04-07T06:37:16;9.83;77.61
68943;DHT22;60852;52.190;4.422;2023-04-07T06:39:42;9.86;77.84
68943;DHT22;60852;52.190;4.422;2023-04-07T06:42:07;9.93;77.73
68943;DHT22;60852;52.190;4.422;2023-04-07T06:44:33;9.96;77.62
68943;DHT22;60852;52.190;4.422;2023-04-07T06:46:58;9.92;77.47
68943;DHT22;60852;52.190;4.422;2023-04-07T06:49:24;9.93;77.86
68943;DHT22;60852;52.190;4.422;2023-04-07T06:51:49;9.97;77.76
68943;DHT22;60852;52.190;4.422;2023-04-07T06:54:15;9.93;77.96
68943;DHT22;60852;52.190;4.422;2023-04-07T06:56:41;9.93;78.19
68943;DHT22;60852;52.190;4.422;2023-04-07T06:59:07;9.94;78.35
68943;DHT22;60852;52.190;4.422;2023-04-07T07:01:33;9.97;78.74
68943;DHT22;60852;52.190;4.422;2023-04-07T07:03:59;10.02;78.80
68943;DHT22;60852;52.190;4.422;2023-04-07T07:06:27;10.02;78.89
68943;DHT22;60852;52.190;4.422;2023-04-07T07:08:53;10.02;78.73
68943;DHT22;60852;52.190;4.422;2023-04-07T07:11:19;10.09;78.70
68943;DHT22;60852;52.190;4.422;2023-04-07T07:13:45;10.14;78.15
68943;DHT22;60852;52.190;4.422;2023-04-07T07:16:10;10.07;77.74
68943;DHT22;60852;52.190;4.422;2023-04-07T07:18:37;10.02;77.79
68943;DHT22;60852;52.190;4.422;2023-04-07T07:21:03;9.97;77.45
68943;DHT22;60852;52.190;4.422;2023-04-07T07:23:28;9.99;77.46
68943;DHT22;60852;52.190;4.422;2023-04-07T07:25:54;10.02;77.40
68943;DHT22;60852;52.190;4.422;2023-04-07T07:28:19;10.10;77.06
68943;DHT22;60852;52.190;4.422;2023-04-07T07:30:46;10.04;76.78
68943;DHT22;60852;52.190;4.422;2023-04-07T07:33:12;10.00;76.26
68943;DHT22;60852;52.190;4.422;2023-04-07T07:35:37;10.03;76.23
68943;DHT22;60852;52.190;4.422;2023-04-07T07:38:05;10.12;76.03
68943;DHT22;60852;52.190;4.422;2023-04-07T07:40:31;10.25;76.05
68943;DHT22;60852;52.190;4.422;2023-04-07T07:42:56;10.37;75.84
68943;DHT22;60852;52.190;4.422;2023-04-07T07:45:22;10.36;75.61
68943;DHT22;60852;52.190;4.422;2023-04-07T07:47:47;10.34;75.83
68943;DHT22;60852;52.190;4.422;2023-04-07T07:50:13;10.36;76.10
68943;DHT22;60852;52.190;4.422;2023-04-07T07:52:38;10.38;75.92
68943;DHT22;60852;52.190;4.422;2023-04-07T07:55:04;10.48;76.01
68943;DHT22;60852;52.190;4.422;2023-04-07T07:57:29;10.44;76.12
68943;DHT22;60852;52.190;4.422;2023-04-07T07:59:57;10.44;76.10
68943;DHT22;60852;52.190;4.422;2023-04-07T08:02:23;10.40;76.19
68943;DHT22;60852;52.190;4.422;2023-04-07T08:04:55;10.42;76.44
68943;DHT22;60852;52.190;4.422;2023-04-07T08:07:20;10.44;76.15
68943;DHT22;60852;52.190;4.422;2023-04-07T08:09:46;10.38;76.45
68943;DHT22;60852;52.190;4.422;2023-04-07T08:12:12;10.34;76.64
68943;DHT22;60852;52.190;4.422;2023-04-07T08:14:37;10.41;76.76
68943;DHT22;60852;52.190;4.422;2023-04-07T08:17:02;10.33;76.17
68943;DHT22;60852;52.190;4.422;2023-04-07T08:19:28;10.40;76.33
68943;DHT22;60852;52.190;4.422;2023-04-07T08:21:53;10.54;76.40
68943;DHT22;60852;52.190;4.422;2023-04-07T08:24:19;10.67;76.25
68943;DHT22;60852;52.190;4.422;2023-04-07T08:26:44;10.54;75.74
68943;DHT22;60852;52.190;4.422;2023-04-07T08:29:09;10.48;75.73
68943;DHT22;60852;52.190;4.422;2023-04-07T08:31:35;10.48;75.73
68943;DHT22;60852;52.190;4.422;2023-04-07T08:34:00;10.50;76.19
68943;DHT22;60852;52.190;4.422;2023-04-07T08:36:26;10.47;76.46
68943;DHT22;60852;52.190;4.422;2023-04-07T08:38:53;10.57;76.76
68943;DHT22;60852;52.190;4.422;2023-04-07T08:41:40;10.67;76.84
68943;DHT22;60852;52.190;4.422;2023-04-07T08:44:09;10.48;76.95
68943;DHT22;60852;52.190;4.422;2023-04-07T08:46:37;10.60;77.04
68943;DHT22;60852;52.190;4.422;2023-04-07T08:49:08;10.64;76.04
68943;DHT22;60852;52.190;4.422;2023-04-07T08:51:44;10.71;76.31
68943;DHT22;60852;52.190;4.422;2023-04-07T08:54:13;10.82;76.11
68943;DHT22;60852;52.190;4.422;2023-04-07T08:56:42;10.92;75.93
68943;DHT22;60852;52.190;4.422;2023-04-07T08:59:13;10.86;75.20
68943;DHT22;60852;52.190;4.422;2023-04-07T09:01:40;10.93;75.28
68943;DHT22;60852;52.190;4.422;2023-04-07T09:04:07;11.05;75.35
68943;DHT22;60852;52.190;4.422;2023-04-07T09:06:34;10.99;75.13
68943;DHT22;60852;52.190;4.422;2023-04-07T09:09:01;10.86;75.29
68943;DHT22;60852;52.190;4.422;2023-04-07T09:11:28;10.92;75.39
68943;DHT22;60852;52.190;4.422;2023-04-07T09:13:55;11.03;75.71
68943;DHT22;60852;52.190;4.422;2023-04-07T09:16:21;11.05;75.58
68943;DHT22;60852;52.190;4.422;2023-04-07T09:18:48;11.10;75.94
68943;DHT22;60852;52.190;4.422;2023-04-07T09:21:14;11.12;75.56
68943;DHT22;60852;52.190;4.422;2023-04-07T09:23:41;11.16;75.78
68943;DHT22;60852;52.190;4.422;2023-04-07T09:26:19;11.19;76.00
68943;DHT22;60852;52.190;4.422;2023-04-07T09:29:06;11.26;76.06
68943;DHT22;60852;52.190;4.422;2023-04-07T09:31:57;11.16;75.82
68943;DHT22;60852;52.190;4.422;2023-04-07T09:34:35;11.23;76.06
68943;DHT22;60852;52.190;4.422;2023-04-07T09:37:01;11.36;75.92
68943;DHT22;60852;52.190;4.422;2023-04-07T09:39:27;11.23;76.14
68943;DHT22;60852;52.190;4.422;2023-04-07T09:41:53;11.39;76.48
68943;DHT22;60852;52.190;4.422;2023-04-07T09:44:21;11.43;76.26
68943;DHT22;60852;52.190;4.422;2023-04-07T09:49:19;11.71;76.40
68943;DHT22;60852;52.190;4.422;2023-04-07T09:51:59;11.61;75.58
68943;DHT22;60852;52.190;4.422;2023-04-07T09:56:59;11.49;76.22
68943;DHT22;60852;52.190;4.422;2023-04-07T09:59:27;11.47;76.12
68943;DHT22;60852;52.190;4.422;2023-04-07T10:01:54;11.46;75.68
68943;DHT22;60852;52.190;4.422;2023-04-07T10:04:19;11.30;75.79
68943;DHT22;60852;52.190;4.422;2023-04-07T10:06:46;11.05;76.46
68943;DHT22;60852;52.190;4.422;2023-04-07T10:09:12;11.02;76.66
68943;DHT22;60852;52.190;4.422;2023-04-07T10:11:40;11.16;76.86
68943;DHT22;60852;52.190;4.422;2023-04-07T10:14:08;11.19;76.81
68943;DHT22;60852;52.190;4.422;2023-04-07T10:16:35;11.05;76.64
68943;DHT22;60852;52.190;4.422;2023-04-07T10:19:01;10.89;76.70
68943;DHT22;60852;52.190;4.422;2023-04-07T10:21:28;10.92;76.89
68943;DHT22;60852;52.190;4.422;2023-04-07T10:26:31;10.93;76.95
68943;DHT22;60852;52.190;4.422;2023-04-07T10:29:09;10.92;77.07
68943;DHT22;60852;52.190;4.422;2023-04-07T10:31:37;10.96;76.80
68943;DHT22;60852;52.190;4.422;2023-04-07T10:34:03;10.98;77.09
68943;DHT22;60852;52.190;4.422;2023-04-07T10:36:30;10.99;77.48
68943;DHT22;60852;52.190;4.422;2023-04-07T10:41:36;11.33;76.45
68943;DHT22;60852;52.190;4.422;2023-04-07T10:44:03;11.43;76.22
68943;DHT22;60852;52.190;4.422;2023-04-07T10:49:10;11.44;75.35
68943;DHT22;60852;52.190;4.422;2023-04-07T10:51:37;11.37;75.13
68943;DHT22;60852;52.190;4.422;2023-04-07T10:54:18;11.33;75.02
68943;DHT22;60852;52.190;4.422;2023-04-07T10:59:32;11.27;74.97
68943;DHT22;60852;52.190;4.422;2023-04-07T11:04:41;11.10;74.22
68943;DHT22;60852;52.190;4.422;2023-04-07T11:07:07;11.12;74.55
68943;DHT22;60852;52.190;4.422;2023-04-07T11:09:33;11.18;75.08
68943;DHT22;60852;52.190;4.422;2023-04-07T11:11:59;11.33;74.50
68943;DHT22;60852;52.190;4.422;2023-04-07T11:14:28;11.43;73.83
68943;DHT22;60852;52.190;4.422;2023-04-07T11:16:54;11.33;73.66
68943;DHT22;60852;52.190;4.422;2023-04-07T11:19:21;11.53;73.69
68943;DHT22;60852;52.190;4.422;2023-04-07T11:21:47;11.64;73.01
68943;DHT22;60852;52.190;4.422;2023-04-07T11:24:32;11.46;72.78
68943;DHT22;60852;52.190;4.422;2023-04-07T11:26:58;11.43;73.03
68943;DHT22;60852;52.190;4.422;2023-04-07T11:29:30;11.49;73.13
68943;DHT22;60852;52.190;4.422;2023-04-07T11:32:01;11.47;72.60
68943;DHT22;60852;52.190;4.422;2023-04-07T11:34:31;11.49;72.63
68943;DHT22;60852;52.190;4.422;2023-04-07T11:36:58;11.41;73.12
68943;DHT22;60852;52.190;4.422;2023-04-07T11:39:42;11.39;72.23
68943;DHT22;60852;52.190;4.422;2023-04-07T11:42:10;11.39;73.13
68943;DHT22;60852;52.190;4.422;2023-04-07T11:44:46;11.63;72.37
68943;DHT22;60852;52.190;4.422;2023-04-07T11:47:11;11.61;72.19
68943;DHT22;60852;52.190;4.422;2023-04-07T11:49:44;11.61;71.95
68943;DHT22;60852;52.190;4.422;2023-04-07T11:52:11;11.56;72.48
68943;DHT22;60852;52.190;4.422;2023-04-07T11:54:45;11.64;72.03
68943;DHT22;60852;52.190;4.422;2023-04-07T11:57:27;11.56;71.84
68943;DHT22;60852;52.190;4.422;2023-04-07T12:00:06;11.46;72.65
68943;DHT22;60852;52.190;4.422;2023-04-07T12:02:33;11.49;72.76
68943;DHT22;60852;52.190;4.422;2023-04-07T12:04:58;11.44;72.40
68943;DHT22;60852;52.190;4.422;2023-04-07T12:07:24;11.44;73.32
68943;DHT22;60852;52.190;4.422;2023-04-07T12:09:55;11.67;73.49
68943;DHT22;60852;52.190;4.422;2023-04-07T12:12:26;11.64;72.17
68943;DHT22;60852;52.190;4.422;2023-04-07T12:14:52;11.57;72.69
68943;DHT22;60852;52.190;4.422;2023-04-07T12:19:47;11.66;72.92
68943;DHT22;60852;52.190;4.422;2023-04-07T12:22:12;11.68;73.04
68943;DHT22;60852;52.190;4.422;2023-04-07T12:24:37;11.73;72.26
68943;DHT22;60852;52.190;4.422;2023-04-07T12:27:03;11.78;72.09
68943;DHT22;60852;52.190;4.422;2023-04-07T12:29:28;11.84;71.92
68943;DHT22;60852;52.190;4.422;2023-04-07T12:31:55;11.85;72.30
68943;DHT22;60852;52.190;4.422;2023-04-07T12:34:20;12.05;72.34
68943;DHT22;60852;52.190;4.422;2023-04-07T12:36:46;12.19;71.82
68943;DHT22;60852;52.190;4.422;2023-04-07T12:39:11;12.15;71.18
68943;DHT22;60852;52.190;4.422;2023-04-07T12:41:37;12.14;71.97
68943;DHT22;60852;52.190;4.422;2023-04-07T12:44:04;12.21;72.03
68943;DHT22;60852;52.190;4.422;2023-04-07T12:46:30;11.87;72.05
68943;DHT22;60852;52.190;4.422;2023-04-07T12:48:55;11.66;72.84
68943;DHT22;60852;52.190;4.422;2023-04-07T12:51:21;11.44;73.82
68943;DHT22;60852;52.190;4.422;2023-04-07T12:53:46;11.31;74.43
68943;DHT22;60852;52.190;4.422;2023-04-07T12:56:12;11.23;75.02
68943;DHT22;60852;52.190;4.422;2023-04-07T12:58:39;11.13;75.77
68943;DHT22;60852;52.190;4.422;2023-04-07T13:01:04;11.20;76.38
68943;DHT22;60852;52.190;4.422;2023-04-07T13:03:30;11.26;75.62
68943;DHT22;60852;52.190;4.422;2023-04-07T13:05:56;11.40;75.54
68943;DHT22;60852;52.190;4.422;2023-04-07T13:08:26;11.43;75.09
68943;DHT22;60852;52.190;4.422;2023-04-07T13:10:52;11.41;74.65
68943;DHT22;60852;52.190;4.422;2023-04-07T13:13:17;11.53;75.13
68943;DHT22;60852;52.190;4.422;2023-04-07T13:15:43;11.59;74.92
68943;DHT22;60852;52.190;4.422;2023-04-07T13:18:08;11.49;74.53
68943;DHT22;60852;52.190;4.422;2023-04-07T13:20:34;11.40;74.84
68943;DHT22;60852;52.190;4.422;2023-04-07T13:22:59;11.30;75.47
68943;DHT22;60852;52.190;4.422;2023-04-07T13:25:25;11.24;75.53
68943;DHT22;60852;52.190;4.422;2023-04-07T13:27:50;11.18;75.38
68943;DHT22;60852;52.190;4.422;2023-04-07T13:30:16;11.20;76.04
68943;DHT22;60852;52.190;4.422;2023-04-07T13:32:41;11.20;75.37
68943;DHT22;60852;52.190;4.422;2023-04-07T13:35:07;11.31;75.43
68943;DHT22;60852;52.190;4.422;2023-04-07T13:37:33;11.50;74.98
68943;DHT22;60852;52.190;4.422;2023-04-07T13:39:58;11.43;74.88
68943;DHT22;60852;52.190;4.422;2023-04-07T13:42:23;11.54;74.54
68943;DHT22;60852;52.190;4.422;2023-04-07T13:44:49;11.66;73.55
68943;DHT22;60852;52.190;4.422;2023-04-07T13:47:16;11.64;73.67
68943;DHT22;60852;52.190;4.422;2023-04-07T13:49:46;11.70;74.07
68943;DHT22;60852;52.190;4.422;2023-04-07T13:52:11;11.82;73.69
68943;DHT22;60852;52.190;4.422;2023-04-07T13:54:38;11.74;73.95
68943;DHT22;60852;52.190;4.422;2023-04-07T13:57:03;11.78;73.75
68943;DHT22;60852;52.190;4.422;2023-04-07T13:59:29;11.97;74.04
68943;DHT22;60852;52.190;4.422;2023-04-07T14:01:55;12.11;73.67
68943;DHT22;60852;52.190;4.422;2023-04-07T14:04:21;12.19;72.91
68943;DHT22;60852;52.190;4.422;2023-04-07T14:06:47;12.11;72.66
68943;DHT22;60852;52.190;4.422;2023-04-07T14:09:13;12.17;73.16
68943;DHT22;60852;52.190;4.422;2023-04-07T14:11:38;12.09;72.46
68943;DHT22;60852;52.190;4.422;2023-04-07T14:14:04;11.85;73.13
68943;DHT22;60852;52.190;4.422;2023-04-07T14:16:30;11.84;73.83
68943;DHT22;60852;52.190;4.422;2023-04-07T14:18:55;11.77;73.58
68943;DHT22;60852;52.190;4.422;2023-04-07T14:21:22;11.74;74.34
68943;DHT22;60852;52.190;4.422;2023-04-07T14:23:48;11.92;74.21
68943;DHT22;60852;52.190;4.422;2023-04-07T14:26:14;11.94;72.96
68943;DHT22;60852;52.190;4.422;2023-04-07T14:28:40;11.87;74.08
68943;DHT22;60852;52.190;4.422;2023-04-07T14:31:06;11.82;74.15
68943;DHT22;60852;52.190;4.422;2023-04-07T14:33:35;11.75;73.78
68943;DHT22;60852;52.190;4.422;2023-04-07T14:36:01;11.63;74.15
68943;DHT22;60852;52.190;4.422;2023-04-07T14:38:26;11.59;74.59
68943;DHT22;60852;52.190;4.422;2023-04-07T14:40:52;11.49;74.78
68943;DHT22;60852;52.190;4.422;2023-04-07T14:43:17;11.37;74.86
68943;DHT22;60852;52.190;4.422;2023-04-07T14:45:43;11.27;75.18
68943;DHT22;60852;52.190;4.422;2023-04-07T14:48:08;11.22;75.79
68943;DHT22;60852;52.190;4.422;2023-04-07T14:50:34;11.20;76.25
68943;DHT22;60852;52.190;4.422;2023-04-07T14:53:00;11.33;76.28
68943;DHT22;60852;52.190;4.422;2023-04-07T14:55:25;11.41;75.92
68943;DHT22;60852;52.190;4.422;2023-04-07T14:57:50;11.39;75.48
68943;DHT22;60852;52.190;4.422;2023-04-07T15:00:16;11.22;75.56
68943;DHT22;60852;52.190;4.422;2023-04-07T15:02:41;11.23;76.19
68943;DHT22;60852;52.190;4.422;2023-04-07T15:05:07;11.33;76.12
68943;DHT22;60852;52.190;4.422;2023-04-07T15:07:33;11.37;76.11
68943;DHT22;60852;52.190;4.422;2023-04-07T15:09:59;11.31;75.66
68943;DHT22;60852;52.190;4.422;2023-04-07T15:12:25;11.30;76.35
68943;DHT22;60852;52.190;4.422;2023-04-07T15:14:52;11.39;76.05
68943;DHT22;60852;52.190;4.422;2023-04-07T15:17:18;11.41;75.77
68943;DHT22;60852;52.190;4.422;2023-04-07T15:19:44;11.47;75.85
68943;DHT22;60852;52.190;4.422;2023-04-07T15:22:10;11.49;75.64
68943;DHT22;60852;52.190;4.422;2023-04-07T15:24:35;11.47;75.84
68943;DHT22;60852;52.190;4.422;2023-04-07T15:27:00;11.29;75.97
68943;DHT22;60852;52.190;4.422;2023-04-07T15:29:26;11.34;75.90
68943;DHT22;60852;52.190;4.422;2023-04-07T15:31:51;11.40;76.13
68943;DHT22;60852;52.190;4.422;2023-04-07T15:34:17;11.40;75.92
68943;DHT22;60852;52.190;4.422;2023-04-07T15:36:42;11.46;76.30
68943;DHT22;60852;52.190;4.422;2023-04-07T15:39:08;11.44;76.34
68943;DHT22;60852;52.190;4.422;2023-04-07T15:41:33;11.51;76.45
68943;DHT22;60852;52.190;4.422;2023-04-07T15:44:00;11.57;76.17
68943;DHT22;60852;52.190;4.422;2023-04-07T15:46:26;11.61;75.75
68943;DHT22;60852;52.190;4.422;2023-04-07T15:48:51;11.56;75.56
68943;DHT22;60852;52.190;4.422;2023-04-07T15:51:17;11.44;75.81
68943;DHT22;60852;52.190;4.422;2023-04-07T15:53:43;11.56;76.29
68943;DHT22;60852;52.190;4.422;2023-04-07T15:56:10;11.59;75.78
68943;DHT22;60852;52.190;4.422;2023-04-07T15:58:35;11.54;75.65
68943;DHT22;60852;52.190;4.422;2023-04-07T16:01:01;11.43;75.78
68943;DHT22;60852;52.190;4.422;2023-04-07T16:03:27;11.34;76.33